sensor_id;sensor_type;location;lat;lon;timestamp;pressure;altitude;pressure_sealevel;temperature;humidity
2785;BME280;57944;48.722;9.316;2022-12-18T00:01:39;99174.63;;;-9.04;100.00
2785;BME280;57944;48.722;9.316;2022-12-18T00:04:19;99170.44;;;-9.02;100.00
2785;BME280;57944;48.722;9.316;2022-12-18T00:06:53;99175.94;;;-9.23;100.00
2785;BME280;57944;48.722;9.316;2022-12-18T00:09:23;99180.00;;;-9.22;100.00
2785;BME280;57944;48.722;9.316;2022-12-18T00:12:06;99186.94;;;-9.02;100.00
2785;BME280;57944;48.722;9.316;2022-12-18T00:14:41;99192.94;;;-9.12;100.00
2785;BME280;57944;48.722;9.316;2022-12-18T00:17:13;99178.47;;;-9.26;100.00
2785;BME280;57944;48.722;9.316;2022-12-18T00:19:43;99174.31;;;-9.24;100.00
2785;BME280;57944;48.722;9.316;2022-12-18T00:22:15;99184.38;;;-8.99;100.00
2785;BME280;57944;48.722;9.316;2022-12-18T00:24:45;99188.28;;;-9.23;100.00
2785;BME280;57944;48.722;9.316;2022-12-18T00:27:16;99191.44;;;-9.18;100.00
2785;BME280;57944;48.722;9.316;2022-12-18T00:29:46;99188.94;;;-9.16;100.00
2785;BME280;57944;48.722;9.316;2022-12-18T00:32:17;99184.91;;;-9.19;100.00
2785;BME280;57944;48.722;9.316;2022-12-18T00:34:47;99186.34;;;-9.12;100.00
2785;BME280;57944;48.722;9.316;2022-12-18T00:37:20;99185.34;;;-9.37;100.00
2785;BME280;57944;48.722;9.316;2022-12-18T00:39:50;99188.63;;;-9.37;100.00
2785;BME280;57944;48.722;9.316;2022-12-18T00:42:20;99189.41;;;-9.35;100.00
2785;BME280;57944;48.722;9.316;2022-12-18T00:45:04;99194.16;;;-9.27;100.00
2785;BME280;57944;48.722;9.316;2022-12-18T00:47:39;99202.53;;;-9.34;100.00
2785;BME280;57944;48.722;9.316;2022-12-18T00:50:09;99196.88;;;-9.38;100.00
2785;BME280;57944;48.722;9.316;2022-12-18T00:52:43;99209.69;;;-9.24;100.00
2785;BME280;57944;48.722;9.316;2022-12-18T00:55:14;99192.41;;;-9.24;100.00
2785;BME280;57944;48.722;9.316;2022-12-18T00:57:46;99192.94;;;-9.12;100.00
2785;BME280;57944;48.722;9.316;2022-12-18T01:00:16;99196.13;;;-9.07;100.00
2785;BME280;57944;48.722;9.316;2022-12-18T01:02:46;99196.72;;;-8.99;100.00
2785;BME280;57944;48.722;9.316;2022-12-18T01:05:17;99188.94;;;-9.16;100.00
2785;BME280;57944;48.722;9.316;2022-12-18T01:07:50;99204.22;;;-9.35;100.00
2785;BME280;57944;48.722;9.316;2022-12-18T01:10:20;99197.59;;;-9.33;100.00
2785;BME280;57944;48.722;9.316;2022-12-18T01:12:51;99191.81;;;-9.33;100.00
2785;BME280;57944;48.722;9.316;2022-12-18T01:15:21;99188.75;;;-9.41;100.00
2785;BME280;57944;48.722;9.316;2022-12-18T01:17:52;99192.75;;;-9.37;100.00
2785;BME280;57944;48.722;9.316;2022-12-18T01:20:22;99196.03;;;-9.37;100.00
2785;BME280;57944;48.722;9.316;2022-12-18T01:22:55;99192.41;;;-9.24;100.00
2785;BME280;57944;48.722;9.316;2022-12-18T01:25:26;99195.88;;;-9.31;100.00
2785;BME280;57944;48.722;9.316;2022-12-18T01:27:56;99195.38;;;-9.45;100.00
2785;BME280;57944;48.722;9.316;2022-12-18T01:30:26;99196.81;;;-9.35;100.00
2785;BME280;57944;48.722;9.316;2022-12-18T01:32:56;99201.09;;;-9.43;100.00
2785;BME280;57944;48.722;9.316;2022-12-18T01:35:27;99213.44;;;-9.41;100.00
2785;BME280;57944;48.722;9.316;2022-12-18T01:37:59;99213.91;;;-9.29;100.00
2785;BME280;57944;48.722;9.316;2022-12-18T01:40:30;99207.25;;;-9.25;100.00
2785;BME280;57944;48.722;9.316;2022-12-18T01:43:00;99196.75;;;-9.33;100.00
2785;BME280;57944;48.722;9.316;2022-12-18T01:45:31;99207.91;;;-9.18;100.00
2785;BME280;57944;48.722;9.316;2022-12-18T01:48:06;99205.56;;;-9.23;100.00
2785;BME280;57944;48.722;9.316;2022-12-18T01:50:41;99210.47;;;-9.22;100.00
2785;BME280;57944;48.722;9.316;2022-12-18T01:53:18;99213.81;;;-9.24;100.00
2785;BME280;57944;48.722;9.316;2022-12-18T01:55:53;99216.56;;;-9.36;100.00
2785;BME280;57944;48.722;9.316;2022-12-18T01:58:35;99212.66;;;-9.45;100.00
2785;BME280;57944;48.722;9.316;2022-12-18T02:01:08;99207.84;;;-9.85;100.00
2785;BME280;57944;48.722;9.316;2022-12-18T02:03:41;99204.66;;;-9.91;100.00
2785;BME280;57944;48.722;9.316;2022-12-18T02:06:16;99205.75;;;-10.02;100.00
2785;BME280;57944;48.722;9.316;2022-12-18T02:09:10;99203.53;;;-10.15;100.00
2785;BME280;57944;48.722;9.316;2022-12-18T02:11:50;99204.50;;;-10.22;100.00
2785;BME280;57944;48.722;9.316;2022-12-18T02:14:36;99196.50;;;-10.30;100.00
2785;BME280;57944;48.722;9.316;2022-12-18T02:17:17;99198.81;;;-10.24;100.00
2785;BME280;57944;48.722;9.316;2022-12-18T02:20:03;99207.34;;;-10.01;100.00
2785;BME280;57944;48.722;9.316;2022-12-18T02:22:48;99203.63;;;-9.80;100.00
2785;BME280;57944;48.722;9.316;2022-12-18T02:25:40;99205.25;;;-9.81;100.00
2785;BME280;57944;48.722;9.316;2022-12-18T02:28:23;99205.25;;;-9.81;100.00
2785;BME280;57944;48.722;9.316;2022-12-18T02:31:02;99208.59;;;-9.82;100.00
2785;BME280;57944;48.722;9.316;2022-12-18T02:33:35;99208.97;;;-10.00;100.00
2785;BME280;57944;48.722;9.316;2022-12-18T02:36:09;99203.78;;;-9.88;100.00
2785;BME280;57944;48.722;9.316;2022-12-18T02:38:42;99215.91;;;-10.18;100.00
2785;BME280;57944;48.722;9.316;2022-12-18T02:41:16;99222.19;;;-10.42;100.00
2785;BME280;57944;48.722;9.316;2022-12-18T02:43:56;99221.84;;;-10.26;100.00
2785;BME280;57944;48.722;9.316;2022-12-18T02:46:32;99226.53;;;-10.54;100.00
2785;BME280;57944;48.722;9.316;2022-12-18T02:49:24;99229.88;;;-10.59;100.00
2785;BME280;57944;48.722;9.316;2022-12-18T02:52:08;99236.53;;;-10.61;100.00
2785;BME280;57944;48.722;9.316;2022-12-18T02:54:55;99232.94;;;-10.91;100.00
2785;BME280;57944;48.722;9.316;2022-12-18T02:57:36;99234.84;;;-11.05;100.00
2785;BME280;57944;48.722;9.316;2022-12-18T03:00:16;99240.75;;;-11.14;100.00
2785;BME280;57944;48.722;9.316;2022-12-18T03:02:56;99235.94;;;-11.23;100.00
2785;BME280;57944;48.722;9.316;2022-12-18T03:05:36;99231.13;;;-11.29;100.00
2785;BME280;57944;48.722;9.316;2022-12-18T03:08:15;99222.66;;;-11.13;100.00
2785;BME280;57944;48.722;9.316;2022-12-18T03:10:53;99222.25;;;-10.88;100.00
2785;BME280;57944;48.722;9.316;2022-12-18T03:13:33;99220.41;;;-10.78;100.00
2785;BME280;57944;48.722;9.316;2022-12-18T03:16:12;99220.75;;;-10.97;100.00
2785;BME280;57944;48.722;9.316;2022-12-18T03:18:49;99229.88;;;-11.02;100.00
2785;BME280;57944;48.722;9.316;2022-12-18T03:21:30;99226.63;;;-11.04;100.00
2785;BME280;57944;48.722;9.316;2022-12-18T03:24:08;99229.16;;;-11.09;100.00
2785;BME280;57944;48.722;9.316;2022-12-18T03:26:45;99228.50;;;-11.18;100.00
2785;BME280;57944;48.722;9.316;2022-12-18T03:29:21;99241.31;;;-11.01;100.00
2785;BME280;57944;48.722;9.316;2022-12-18T03:32:02;99249.34;;;-10.90;100.00
2785;BME280;57944;48.722;9.316;2022-12-18T03:34:38;99248.84;;;-11.09;100.00
2785;BME280;57944;48.722;9.316;2022-12-18T03:37:12;99244.06;;;-11.18;100.00
2785;BME280;57944;48.722;9.316;2022-12-18T03:39:43;99247.56;;;-11.31;100.00
2785;BME280;57944;48.722;9.316;2022-12-18T03:42:26;99247.84;;;-11.50;100.00
2785;BME280;57944;48.722;9.316;2022-12-18T03:45:12;99242.78;;;-11.40;100.00
2785;BME280;57944;48.722;9.316;2022-12-18T03:47:59;99236.72;;;-11.19;100.00
2785;BME280;57944;48.722;9.316;2022-12-18T03:50:44;99237.56;;;-11.20;100.00
2785;BME280;57944;48.722;9.316;2022-12-18T03:53:31;99234.59;;;-11.41;100.00
2785;BME280;57944;48.722;9.316;2022-12-18T03:56:05;99238.56;;;-11.31;100.00
2785;BME280;57944;48.722;9.316;2022-12-18T03:58:40;99243.06;;;-11.59;100.00
2785;BME280;57944;48.722;9.316;2022-12-18T04:01:22;99242.00;;;-11.42;100.00
2785;BME280;57944;48.722;9.316;2022-12-18T04:04:00;99247.97;;;-11.59;100.00
2785;BME280;57944;48.722;9.316;2022-12-18T04:06:36;99255.53;;;-11.70;100.00
2785;BME280;57944;48.722;9.316;2022-12-18T04:09:10;99248.25;;;-11.77;100.00
2785;BME280;57944;48.722;9.316;2022-12-18T04:11:44;99242.00;;;-11.97;100.00
2785;BME280;57944;48.722;9.316;2022-12-18T04:14:15;99242.03;;;-12.00;100.00
2785;BME280;57944;48.722;9.316;2022-12-18T04:16:49;99242.97;;;-12.08;100.00
2785;BME280;57944;48.722;9.316;2022-12-18T04:19:27;99236.41;;;-12.08;100.00
2785;BME280;57944;48.722;9.316;2022-12-18T04:21:58;99235.66;;;-12.13;100.00
2785;BME280;57944;48.722;9.316;2022-12-18T04:24:34;99231.56;;;-12.14;100.00
2785;BME280;57944;48.722;9.316;2022-12-18T04:27:11;99234.81;;;-12.12;100.00
2785;BME280;57944;48.722;9.316;2022-12-18T04:29:46;99239.13;;;-12.28;100.00
2785;BME280;57944;48.722;9.316;2022-12-18T04:32:18;99227.13;;;-12.52;100.00
2785;BME280;57944;48.722;9.316;2022-12-18T04:34:51;99239.47;;;-12.60;100.00
2785;BME280;57944;48.722;9.316;2022-12-18T04:37:22;99243.50;;;-12.53;100.00
2785;BME280;57944;48.722;9.316;2022-12-18T04:39:52;99249.09;;;-12.42;100.00
2785;BME280;57944;48.722;9.316;2022-12-18T04:42:32;99258.22;;;-12.53;100.00
2785;BME280;57944;48.722;9.316;2022-12-18T04:45:04;99266.41;;;-12.54;100.00
2785;BME280;57944;48.722;9.316;2022-12-18T04:47:34;99267.28;;;-12.58;100.00
2785;BME280;57944;48.722;9.316;2022-12-18T04:50:08;99258.34;;;-12.65;100.00
2785;BME280;57944;48.722;9.316;2022-12-18T04:52:38;99263.38;;;-12.79;100.00
2785;BME280;57944;48.722;9.316;2022-12-18T04:55:08;99253.59;;;-12.80;100.00
2785;BME280;57944;48.722;9.316;2022-12-18T04:57:38;99252.66;;;-12.70;100.00
2785;BME280;57944;48.722;9.316;2022-12-18T05:00:10;99243.75;;;-12.79;100.00
2785;BME280;57944;48.722;9.316;2022-12-18T05:02:40;99239.72;;;-12.85;100.00
2785;BME280;57944;48.722;9.316;2022-12-18T05:05:14;99233.25;;;-12.89;100.00
2785;BME280;57944;48.722;9.316;2022-12-18T05:07:44;99231.38;;;-12.68;100.00
2785;BME280;57944;48.722;9.316;2022-12-18T05:10:14;99216.53;;;-12.56;100.00
2785;BME280;57944;48.722;9.316;2022-12-18T05:12:45;99229.75;;;-12.69;100.00
2785;BME280;57944;48.722;9.316;2022-12-18T05:15:32;99229.00;;;-12.74;100.00
2785;BME280;57944;48.722;9.316;2022-12-18T05:18:03;99233.88;;;-12.70;100.00
2785;BME280;57944;48.722;9.316;2022-12-18T05:20:36;99234.63;;;-12.68;100.00
2785;BME280;57944;48.722;9.316;2022-12-18T05:23:06;99247.84;;;-12.78;100.00
2785;BME280;57944;48.722;9.316;2022-12-18T05:25:36;99253.50;;;-12.71;100.00
2785;BME280;57944;48.722;9.316;2022-12-18T05:28:07;99247.19;;;-12.95;100.00
2785;BME280;57944;48.722;9.316;2022-12-18T05:30:37;99249.78;;;-13.09;100.00
2785;BME280;57944;48.722;9.316;2022-12-18T05:33:07;99249.03;;;-13.17;100.00
2785;BME280;57944;48.722;9.316;2022-12-18T05:35:40;99254.75;;;-13.17;100.00
2785;BME280;57944;48.722;9.316;2022-12-18T05:38:10;99248.25;;;-13.22;100.00
2785;BME280;57944;48.722;9.316;2022-12-18T05:40:42;99252.50;;;-13.37;100.00
2785;BME280;57944;48.722;9.316;2022-12-18T05:43:12;99257.44;;;-13.43;100.00
2785;BME280;57944;48.722;9.316;2022-12-18T05:45:48;99256.59;;;-13.39;100.00
2785;BME280;57944;48.722;9.316;2022-12-18T05:48:19;99249.00;;;-13.16;100.00
2785;BME280;57944;48.722;9.316;2022-12-18T05:50:52;99248.97;;;-13.08;100.00
2785;BME280;57944;48.722;9.316;2022-12-18T05:53:22;99256.41;;;-13.17;100.00
2785;BME280;57944;48.722;9.316;2022-12-18T05:55:52;99253.13;;;-13.18;100.00
2785;BME280;57944;48.722;9.316;2022-12-18T05:58:22;99254.06;;;-13.30;100.00
2785;BME280;57944;48.722;9.316;2022-12-18T06:00:52;99248.34;;;-13.30;100.00
2785;BME280;57944;48.722;9.316;2022-12-18T06:03:22;99253.91;;;-13.16;100.00
2785;BME280;57944;48.722;9.316;2022-12-18T06:06:02;99253.00;;;-13.04;100.00
2785;BME280;57944;48.722;9.316;2022-12-18T06:08:33;99253.97;;;-13.22;100.00
2785;BME280;57944;48.722;9.316;2022-12-18T06:11:10;99250.69;;;-13.21;100.00
2785;BME280;57944;48.722;9.316;2022-12-18T06:13:41;99249.84;;;-13.18;100.00
2785;BME280;57944;48.722;9.316;2022-12-18T06:16:11;99248.91;;;-13.05;100.00
2785;BME280;57944;48.722;9.316;2022-12-18T06:18:41;99254.63;;;-13.03;100.00
2785;BME280;57944;48.722;9.316;2022-12-18T06:21:13;99253.13;;;-13.19;100.00
2785;BME280;57944;48.722;9.316;2022-12-18T06:23:43;99263.03;;;-13.25;100.00
2785;BME280;57944;48.722;9.316;2022-12-18T06:26:14;99258.16;;;-13.29;100.00
2785;BME280;57944;48.722;9.316;2022-12-18T06:28:50;99250.66;;;-13.16;100.00
2785;BME280;57944;48.722;9.316;2022-12-18T06:31:20;99248.25;;;-13.22;100.00
2785;BME280;57944;48.722;9.316;2022-12-18T06:33:51;99254.00;;;-13.25;100.00
2785;BME280;57944;48.722;9.316;2022-12-18T06:36:23;99260.63;;;-13.33;100.00
2785;BME280;57944;48.722;9.316;2022-12-18T06:38:53;99266.47;;;-13.48;100.00
2785;BME280;57944;48.722;9.316;2022-12-18T06:41:24;99268.13;;;-13.50;100.00
2785;BME280;57944;48.722;9.316;2022-12-18T06:43:54;99272.94;;;-13.41;100.00
2785;BME280;57944;48.722;9.316;2022-12-18T06:46:26;99269.72;;;-13.46;100.00
2785;BME280;57944;48.722;9.316;2022-12-18T06:48:56;99278.72;;;-13.46;100.00
2785;BME280;57944;48.722;9.316;2022-12-18T06:51:29;99277.97;;;-13.56;100.00
2785;BME280;57944;48.722;9.316;2022-12-18T06:53:59;99271.34;;;-13.46;100.00
2785;BME280;57944;48.722;9.316;2022-12-18T06:56:29;99271.06;;;-13.11;100.00
2785;BME280;57944;48.722;9.316;2022-12-18T06:58:59;99271.78;;;-13.00;100.00
2785;BME280;57944;48.722;9.316;2022-12-18T07:01:29;99270.03;;;-12.90;100.00
2785;BME280;57944;48.722;9.316;2022-12-18T07:03:59;99280.75;;;-12.99;100.00
2785;BME280;57944;48.722;9.316;2022-12-18T07:06:32;99279.06;;;-12.91;100.00
2785;BME280;57944;48.722;9.316;2022-12-18T07:09:02;99289.63;;;-12.84;100.00
2785;BME280;57944;48.722;9.316;2022-12-18T07:11:33;99288.88;;;-12.91;100.00
2785;BME280;57944;48.722;9.316;2022-12-18T07:14:03;99297.06;;;-12.93;100.00
2785;BME280;57944;48.722;9.316;2022-12-18T07:16:33;99296.16;;;-12.83;100.00
2785;BME280;57944;48.722;9.316;2022-12-18T07:19:03;99303.56;;;-12.88;100.00
2785;BME280;57944;48.722;9.316;2022-12-18T07:21:36;99307.81;;;-13.05;100.00
2785;BME280;57944;48.722;9.316;2022-12-18T07:24:07;99310.34;;;-13.14;100.00
2785;BME280;57944;48.722;9.316;2022-12-18T07:26:38;99313.66;;;-13.21;100.00
2785;BME280;57944;48.722;9.316;2022-12-18T07:29:08;99316.13;;;-13.23;100.00
2785;BME280;57944;48.722;9.316;2022-12-18T07:31:38;99311.81;;;-12.95;100.00
2785;BME280;57944;48.722;9.316;2022-12-18T07:34:10;99314.88;;;-12.71;100.00
2785;BME280;57944;48.722;9.316;2022-12-18T07:36:44;99320.78;;;-12.89;100.00
2785;BME280;57944;48.722;9.316;2022-12-18T07:39:14;99314.28;;;-12.95;100.00
2785;BME280;57944;48.722;9.316;2022-12-18T07:41:44;99315.09;;;-12.99;100.00
2785;BME280;57944;48.722;9.316;2022-12-18T07:44:35;99316.66;;;-12.89;100.00
2785;BME280;57944;48.722;9.316;2022-12-18T07:47:05;99316.69;;;-12.92;100.00
2785;BME280;57944;48.722;9.316;2022-12-18T07:49:38;99319.91;;;-12.84;100.00
2785;BME280;57944;48.722;9.316;2022-12-18T07:52:11;99325.56;;;-12.77;100.00
2785;BME280;57944;48.722;9.316;2022-12-18T07:54:41;99323.97;;;-12.81;100.00
2785;BME280;57944;48.722;9.316;2022-12-18T07:57:11;99322.22;;;-12.70;100.00
2785;BME280;57944;48.722;9.316;2022-12-18T08:00:01;99325.44;;;-12.63;100.00
2785;BME280;57944;48.722;9.316;2022-12-18T08:02:38;99332.03;;;-12.67;100.00
2785;BME280;57944;48.722;9.316;2022-12-18T08:05:09;99332.81;;;-12.63;100.00
2785;BME280;57944;48.722;9.316;2022-12-18T08:07:41;99342.59;;;-12.60;100.00
2785;BME280;57944;48.722;9.316;2022-12-18T08:10:12;99331.97;;;-12.62;100.00
2785;BME280;57944;48.722;9.316;2022-12-18T08:12:42;99333.44;;;-12.44;100.00
2785;BME280;57944;48.722;9.316;2022-12-18T08:15:12;99335.47;;;-12.03;100.00
2785;BME280;57944;48.722;9.316;2022-12-18T08:17:42;99335.66;;;-12.21;100.00
2785;BME280;57944;48.722;9.316;2022-12-18T08:20:12;99338.91;;;-12.19;100.00
2785;BME280;57944;48.722;9.316;2022-12-18T08:22:48;99338.13;;;-12.21;100.00
2785;BME280;57944;48.722;9.316;2022-12-18T08:25:18;99338.22;;;-12.30;100.00
2785;BME280;57944;48.722;9.316;2022-12-18T08:27:48;99338.78;;;-12.07;100.00
2785;BME280;57944;48.722;9.316;2022-12-18T08:30:19;99330.47;;;-11.97;100.00
2785;BME280;57944;48.722;9.316;2022-12-18T08:32:51;99336.28;;;-12.04;100.00
2785;BME280;57944;48.722;9.316;2022-12-18T08:35:22;99327.81;;;-11.83;100.00
2785;BME280;57944;48.722;9.316;2022-12-18T08:37:54;99330.25;;;-11.81;100.00
2785;BME280;57944;48.722;9.316;2022-12-18T08:40:24;99333.38;;;-11.70;100.00
2785;BME280;57944;48.722;9.316;2022-12-18T08:42:55;99334.66;;;-11.43;100.00
2785;BME280;57944;48.722;9.316;2022-12-18T08:45:37;99333.16;;;-11.52;100.00
2785;BME280;57944;48.722;9.316;2022-12-18T08:48:07;99328.22;;;-11.52;100.00
2785;BME280;57944;48.722;9.316;2022-12-18T08:50:38;99326.69;;;-11.02;100.00
2785;BME280;57944;48.722;9.316;2022-12-18T08:53:11;99332.63;;;-11.15;100.00
2785;BME280;57944;48.722;9.316;2022-12-18T08:55:42;99335.81;;;-11.10;100.00
2785;BME280;57944;48.722;9.316;2022-12-18T08:58:16;99336.06;;;-10.72;100.00
2785;BME280;57944;48.722;9.316;2022-12-18T09:00:46;99334.56;;;-10.33;100.00
2785;BME280;57944;48.722;9.316;2022-12-18T09:03:19;99334.44;;;-10.27;100.00
2785;BME280;57944;48.722;9.316;2022-12-18T09:05:50;99331.75;;;-10.16;100.00
2785;BME280;57944;48.722;9.316;2022-12-18T09:08:23;99320.03;;;-9.64;100.00
2785;BME280;57944;48.722;9.316;2022-12-18T09:10:53;99320.28;;;-9.02;100.00
2785;BME280;57944;48.722;9.316;2022-12-18T09:13:23;99314.97;;;-9.21;100.00
2785;BME280;57944;48.722;9.316;2022-12-18T09:15:55;99307.56;;;-9.23;100.00
2785;BME280;57944;48.722;9.316;2022-12-18T09:18:25;99308.09;;;-9.44;100.00
2785;BME280;57944;48.722;9.316;2022-12-18T09:20:55;99305.03;;;-9.55;100.00
2785;BME280;57944;48.722;9.316;2022-12-18T09:23:28;99309.91;;;-9.52;100.00
2785;BME280;57944;48.722;9.316;2022-12-18T09:25:59;99318.31;;;-10.01;100.00
2785;BME280;57944;48.722;9.316;2022-12-18T09:28:29;99305.28;;;-9.68;100.00
2785;BME280;57944;48.722;9.316;2022-12-18T09:31:05;99311.72;;;-9.60;100.00
2785;BME280;57944;48.722;9.316;2022-12-18T09:33:37;99314.22;;;-9.62;100.00
2785;BME280;57944;48.722;9.316;2022-12-18T09:36:12;99309.63;;;-9.40;100.00
2785;BME280;57944;48.722;9.316;2022-12-18T09:38:45;99296.44;;;-9.39;100.00
2785;BME280;57944;48.722;9.316;2022-12-18T09:41:32;99303.66;;;-9.31;100.00
2785;BME280;57944;48.722;9.316;2022-12-18T09:44:16;99301.44;;;-9.42;100.00
2785;BME280;57944;48.722;9.316;2022-12-18T09:46:59;99293.78;;;-9.30;100.00
2785;BME280;57944;48.722;9.316;2022-12-18T09:49:36;99290.66;;;-9.38;100.00
2785;BME280;57944;48.722;9.316;2022-12-18T09:52:17;99299.22;;;-9.17;100.00
2785;BME280;57944;48.722;9.316;2022-12-18T09:54:58;99293.47;;;-9.17;100.00
2785;BME280;57944;48.722;9.316;2022-12-18T09:57:33;99285.81;;;-9.41;100.00
2785;BME280;57944;48.722;9.316;2022-12-18T10:00:17;99297.50;;;-9.13;100.00
2785;BME280;57944;48.722;9.316;2022-12-18T10:02:49;99284.53;;;-8.87;100.00
2785;BME280;57944;48.722;9.316;2022-12-18T10:05:35;99280.03;;;-8.71;100.00
2785;BME280;57944;48.722;9.316;2022-12-18T10:08:13;99272.75;;;-8.78;100.00
2785;BME280;57944;48.722;9.316;2022-12-18T10:10:53;99274.50;;;-8.50;100.00
2785;BME280;57944;48.722;9.316;2022-12-18T10:13:30;99287.13;;;-8.29;100.00
2785;BME280;57944;48.722;9.316;2022-12-18T10:16:13;99279.31;;;-8.44;100.00
2785;BME280;57944;48.722;9.316;2022-12-18T10:19:08;99282.69;;;-8.18;100.00
2785;BME280;57944;48.722;9.316;2022-12-18T10:21:52;99279.91;;;-7.78;100.00
2785;BME280;57944;48.722;9.316;2022-12-18T10:24:33;99277.94;;;-7.40;100.00
2785;BME280;57944;48.722;9.316;2022-12-18T10:27:16;99289.88;;;-7.53;100.00
2785;BME280;57944;48.722;9.316;2022-12-18T10:29:46;99288.38;;;-7.57;100.00
2785;BME280;57944;48.722;9.316;2022-12-18T10:32:21;99296.22;;;-7.44;100.00
2785;BME280;57944;48.722;9.316;2022-12-18T10:34:55;99295.56;;;-7.49;100.00
2785;BME280;57944;48.722;9.316;2022-12-18T10:37:29;99279.41;;;-7.08;100.00
2785;BME280;57944;48.722;9.316;2022-12-18T10:40:11;99278.72;;;-6.86;100.00
2785;BME280;57944;48.722;9.316;2022-12-18T10:43:05;99281.41;;;-6.92;100.00
2785;BME280;57944;48.722;9.316;2022-12-18T10:45:35;99288.28;;;-6.50;100.00
2785;BME280;57944;48.722;9.316;2022-12-18T10:48:18;99290.41;;;-6.65;100.00
2785;BME280;57944;48.722;9.316;2022-12-18T10:50:51;99294.69;;;-6.21;100.00
2785;BME280;57944;48.722;9.316;2022-12-18T10:53:42;99297.50;;;-6.54;100.00
2785;BME280;57944;48.722;9.316;2022-12-18T10:56:12;99294.25;;;-6.81;100.00
2785;BME280;57944;48.722;9.316;2022-12-18T10:59:00;99288.59;;;-6.36;100.00
2785;BME280;57944;48.722;9.316;2022-12-18T11:01:48;99291.63;;;-6.52;100.00
2785;BME280;57944;48.722;9.316;2022-12-18T11:04:22;99300.34;;;-6.41;100.00
2785;BME280;57944;48.722;9.316;2022-12-18T11:06:59;99297.81;;;-5.93;100.00
2785;BME280;57944;48.722;9.316;2022-12-18T11:09:31;99290.59;;;-5.55;100.00
2785;BME280;57944;48.722;9.316;2022-12-18T11:12:04;99283.59;;;-5.23;100.00
2785;BME280;57944;48.722;9.316;2022-12-18T11:14:48;99285.53;;;-4.89;100.00
2785;BME280;57944;48.722;9.316;2022-12-18T11:17:21;99277.50;;;-4.75;100.00
2785;BME280;57944;48.722;9.316;2022-12-18T11:19:54;99278.44;;;-4.78;100.00
2785;BME280;57944;48.722;9.316;2022-12-18T11:22:28;99270.03;;;-4.36;100.00
2785;BME280;57944;48.722;9.316;2022-12-18T11:25:01;99260.09;;;-4.17;100.00
2785;BME280;57944;48.722;9.316;2022-12-18T11:27:58;99261.28;;;-3.88;100.00
2785;BME280;57944;48.722;9.316;2022-12-18T11:30:34;99258.63;;;-4.02;100.00
2785;BME280;57944;48.722;9.316;2022-12-18T11:33:09;99246.16;;;-4.02;100.00
2785;BME280;57944;48.722;9.316;2022-12-18T11:35:47;99236.56;;;-3.73;100.00
2785;BME280;57944;48.722;9.316;2022-12-18T11:38:24;99234.66;;;-3.86;100.00
2785;BME280;57944;48.722;9.316;2022-12-18T11:41:02;99245.09;;;-3.96;100.00
2785;BME280;57944;48.722;9.316;2022-12-18T11:43:41;99247.75;;;-3.82;100.00
2785;BME280;57944;48.722;9.316;2022-12-18T11:46:24;99231.66;;;-3.75;100.00
2785;BME280;57944;48.722;9.316;2022-12-18T11:49:03;99236.50;;;-3.72;100.00
2785;BME280;57944;48.722;9.316;2022-12-18T11:51:43;99236.44;;;-3.70;100.00
2785;BME280;57944;48.722;9.316;2022-12-18T11:54:16;99230.63;;;-4.07;100.00
2785;BME280;57944;48.722;9.316;2022-12-18T11:56:51;99216.28;;;-3.83;100.00
2785;BME280;57944;48.722;9.316;2022-12-18T11:59:33;99228.59;;;-3.99;100.00
2785;BME280;57944;48.722;9.316;2022-12-18T12:02:30;99224.16;;;-3.92;100.00
2785;BME280;57944;48.722;9.316;2022-12-18T12:05:27;99219.56;;;-3.65;100.00
2785;BME280;57944;48.722;9.316;2022-12-18T12:08:11;99215.06;;;-3.40;100.00
2785;BME280;57944;48.722;9.316;2022-12-18T12:10:57;99209.56;;;-3.46;100.00
2785;BME280;57944;48.722;9.316;2022-12-18T12:13:47;99200.53;;;-3.49;100.00
2785;BME280;57944;48.722;9.316;2022-12-18T12:16:25;99198.19;;;-3.52;100.00
2785;BME280;57944;48.722;9.316;2022-12-18T12:19:25;99199.09;;;-3.35;100.00
2785;BME280;57944;48.722;9.316;2022-12-18T12:22:06;99195.94;;;-3.22;100.00
2785;BME280;57944;48.722;9.316;2022-12-18T12:24:52;99190.88;;;-3.38;100.00
2785;BME280;57944;48.722;9.316;2022-12-18T12:27:38;99191.00;;;-3.06;100.00
2785;BME280;57944;48.722;9.316;2022-12-18T12:30:18;99194.78;;;-2.81;100.00
2785;BME280;57944;48.722;9.316;2022-12-18T12:33:08;99195.63;;;-3.16;100.00
2785;BME280;57944;48.722;9.316;2022-12-18T12:35:57;99201.63;;;-2.69;100.00
2785;BME280;57944;48.722;9.316;2022-12-18T12:38:35;99188.59;;;-2.42;100.00
2785;BME280;57944;48.722;9.316;2022-12-18T12:41:12;99190.81;;;-2.36;100.00
2785;BME280;57944;48.722;9.316;2022-12-18T12:44:00;99193.13;;;-2.33;100.00
2785;BME280;57944;48.722;9.316;2022-12-18T12:46:38;99197.06;;;-2.29;100.00
2785;BME280;57944;48.722;9.316;2022-12-18T12:49:14;99192.16;;;-2.31;100.00
2785;BME280;57944;48.722;9.316;2022-12-18T12:51:56;99188.88;;;-2.31;100.00
2785;BME280;57944;48.722;9.316;2022-12-18T12:54:28;99177.09;;;-1.97;100.00
2785;BME280;57944;48.722;9.316;2022-12-18T12:57:11;99181.19;;;-2.12;100.00
2785;BME280;57944;48.722;9.316;2022-12-18T12:59:54;99196.75;;;-2.07;100.00
2785;BME280;57944;48.722;9.316;2022-12-18T13:02:34;99198.59;;;-2.11;100.00
2785;BME280;57944;48.722;9.316;2022-12-18T13:05:24;99197.22;;;-2.32;100.00
2785;BME280;57944;48.722;9.316;2022-12-18T13:08:05;99206.66;;;-2.06;100.00
2785;BME280;57944;48.722;9.316;2022-12-18T13:10:38;99221.88;;;-1.94;100.00
2785;BME280;57944;48.722;9.316;2022-12-18T13:13:11;99209.47;;;-1.80;100.00
2785;BME280;57944;48.722;9.316;2022-12-18T13:15:50;99211.44;;;-1.71;100.00
2785;BME280;57944;48.722;9.316;2022-12-18T13:18:34;99205.16;;;-1.48;100.00
2785;BME280;57944;48.722;9.316;2022-12-18T13:21:18;99211.22;;;-1.22;100.00
2785;BME280;57944;48.722;9.316;2022-12-18T13:23:54;99210.47;;;-1.38;100.00
2785;BME280;57944;48.722;9.316;2022-12-18T13:26:32;99213.59;;;-1.65;100.00
2785;BME280;57944;48.722;9.316;2022-12-18T13:29:03;99215.44;;;-1.52;100.00
2785;BME280;57944;48.722;9.316;2022-12-18T13:35:39;99198.94;;;-1.41;100.00
2785;BME280;57944;48.722;9.316;2022-12-18T13:38:22;99193.91;;;-1.25;100.00
2785;BME280;57944;48.722;9.316;2022-12-18T13:40:59;99194.91;;;-1.13;100.00
2785;BME280;57944;48.722;9.316;2022-12-18T13:43:39;99198.88;;;-1.39;100.00